sensor_id;sensor_type;location;lat;lon;timestamp;P1;durP1;ratioP1;P2;durP2;ratioP2
69170;SDS011;56279;47.902;12.308;2024-03-06T00:01:41;8.55;;;4.60;;
69170;SDS011;56279;47.902;12.308;2024-03-06T00:03:42;9.15;;;5.03;;
69170;SDS011;56279;47.902;12.308;2024-03-06T00:05:44;8.55;;;4.45;;
69170;SDS011;56279;47.902;12.308;2024-03-06T00:07:45;7.93;;;4.35;;
69170;SDS011;56279;47.902;12.308;2024-03-06T00:09:47;8.98;;;4.45;;
69170;SDS011;56279;47.902;12.308;2024-03-06T00:11:48;9.90;;;5.00;;
69170;SDS011;56279;47.902;12.308;2024-03-06T00:13:52;9.77;;;5.03;;
69170;SDS011;56279;47.902;12.308;2024-03-06T00:15:54;9.18;;;4.72;;
69170;SDS011;56279;47.902;12.308;2024-03-06T00:17:57;9.07;;;4.95;;
69170;SDS011;56279;47.902;12.308;2024-03-06T00:19:59;7.55;;;4.60;;
69170;SDS011;56279;47.902;12.308;2024-03-06T00:22:00;7.43;;;4.30;;
69170;SDS011;56279;47.902;12.308;2024-03-06T00:24:02;8.60;;;4.45;;
69170;SDS011;56279;47.902;12.308;2024-03-06T00:26:05;8.25;;;4.25;;
69170;SDS011;56279;47.902;12.308;2024-03-06T00:28:07;8.48;;;4.90;;
69170;SDS011;56279;47.902;12.308;2024-03-06T00:30:12;9.68;;;4.45;;
69170;SDS011;56279;47.902;12.308;2024-03-06T00:32:14;9.80;;;4.85;;
69170;SDS011;56279;47.902;12.308;2024-03-06T00:34:15;11.68;;;4.75;;
69170;SDS011;56279;47.902;12.308;2024-03-06T00:36:16;7.82;;;4.00;;
69170;SDS011;56279;47.902;12.308;2024-03-06T00:38:18;11.85;;;4.82;;
69170;SDS011;56279;47.902;12.308;2024-03-06T00:40:19;10.48;;;5.15;;
69170;SDS011;56279;47.902;12.308;2024-03-06T00:42:20;13.15;;;5.43;;
69170;SDS011;56279;47.902;12.308;2024-03-06T00:44:22;12.43;;;5.07;;
69170;SDS011;56279;47.902;12.308;2024-03-06T00:46:24;7.75;;;3.65;;
69170;SDS011;56279;47.902;12.308;2024-03-06T00:48:25;9.43;;;4.50;;
69170;SDS011;56279;47.902;12.308;2024-03-06T00:50:26;6.78;;;3.50;;
69170;SDS011;56279;47.902;12.308;2024-03-06T00:52:27;6.57;;;3.30;;
69170;SDS011;56279;47.902;12.308;2024-03-06T00:54:29;6.63;;;3.35;;
69170;SDS011;56279;47.902;12.308;2024-03-06T00:56:30;6.45;;;2.95;;
69170;SDS011;56279;47.902;12.308;2024-03-06T00:58:32;8.20;;;3.40;;
69170;SDS011;56279;47.902;12.308;2024-03-06T01:00:33;7.53;;;3.13;;
69170;SDS011;56279;47.902;12.308;2024-03-06T01:02:34;7.97;;;3.25;;
69170;SDS011;56279;47.902;12.308;2024-03-06T01:04:36;9.57;;;3.75;;
69170;SDS011;56279;47.902;12.308;2024-03-06T01:06:37;6.50;;;3.30;;
69170;SDS011;56279;47.902;12.308;2024-03-06T01:08:39;9.65;;;3.40;;
69170;SDS011;56279;47.902;12.308;2024-03-06T01:10:40;9.43;;;3.92;;
69170;SDS011;56279;47.902;12.308;2024-03-06T01:12:41;9.35;;;3.33;;
69170;SDS011;56279;47.902;12.308;2024-03-06T01:14:46;5.47;;;2.80;;
69170;SDS011;56279;47.902;12.308;2024-03-06T01:16:48;5.25;;;2.50;;
69170;SDS011;56279;47.902;12.308;2024-03-06T01:18:49;5.15;;;2.60;;
69170;SDS011;56279;47.902;12.308;2024-03-06T01:20:51;5.13;;;2.45;;
69170;SDS011;56279;47.902;12.308;2024-03-06T01:22:53;4.40;;;2.10;;
69170;SDS011;56279;47.902;12.308;2024-03-06T01:24:55;5.25;;;2.70;;
69170;SDS011;56279;47.902;12.308;2024-03-06T01:26:58;3.95;;;2.20;;
69170;SDS011;56279;47.902;12.308;2024-03-06T01:29:03;4.43;;;2.33;;
69170;SDS011;56279;47.902;12.308;2024-03-06T01:31:04;4.32;;;2.08;;
69170;SDS011;56279;47.902;12.308;2024-03-06T01:33:05;5.82;;;2.20;;
69170;SDS011;56279;47.902;12.308;2024-03-06T01:35:07;4.57;;;2.13;;
69170;SDS011;56279;47.902;12.308;2024-03-06T01:37:09;4.03;;;2.30;;
69170;SDS011;56279;47.902;12.308;2024-03-06T01:39:10;4.18;;;2.13;;
69170;SDS011;56279;47.902;12.308;2024-03-06T01:41:12;4.03;;;2.03;;
69170;SDS011;56279;47.902;12.308;2024-03-06T01:43:19;4.68;;;2.13;;
69170;SDS011;56279;47.902;12.308;2024-03-06T01:45:27;4.63;;;2.28;;
69170;SDS011;56279;47.902;12.308;2024-03-06T01:47:28;4.90;;;2.20;;
69170;SDS011;56279;47.902;12.308;2024-03-06T01:49:29;4.43;;;2.42;;
69170;SDS011;56279;47.902;12.308;2024-03-06T01:51:32;5.93;;;2.40;;
69170;SDS011;56279;47.902;12.308;2024-03-06T01:53:33;5.28;;;2.15;;
69170;SDS011;56279;47.902;12.308;2024-03-06T01:55:37;4.18;;;2.47;;
69170;SDS011;56279;47.902;12.308;2024-03-06T01:57:39;5.50;;;2.22;;
69170;SDS011;56279;47.902;12.308;2024-03-06T01:59:41;4.63;;;2.40;;
69170;SDS011;56279;47.902;12.308;2024-03-06T02:01:43;3.53;;;1.80;;
69170;SDS011;56279;47.902;12.308;2024-03-06T02:03:46;3.95;;;1.83;;
69170;SDS011;56279;47.902;12.308;2024-03-06T02:05:48;3.75;;;1.95;;
69170;SDS011;56279;47.902;12.308;2024-03-06T02:07:53;4.05;;;1.83;;
69170;SDS011;56279;47.902;12.308;2024-03-06T02:09:54;3.95;;;1.90;;
69170;SDS011;56279;47.902;12.308;2024-03-06T02:11:56;3.85;;;1.88;;
69170;SDS011;56279;47.902;12.308;2024-03-06T02:13:57;3.17;;;1.73;;
69170;SDS011;56279;47.902;12.308;2024-03-06T02:15:59;3.35;;;1.80;;
69170;SDS011;56279;47.902;12.308;2024-03-06T02:18:04;3.38;;;1.58;;
69170;SDS011;56279;47.902;12.308;2024-03-06T02:20:08;3.03;;;1.70;;
69170;SDS011;56279;47.902;12.308;2024-03-06T02:22:14;3.55;;;1.73;;
69170;SDS011;56279;47.902;12.308;2024-03-06T02:24:18;3.40;;;1.77;;
69170;SDS011;56279;47.902;12.308;2024-03-06T02:26:20;3.88;;;1.70;;
69170;SDS011;56279;47.902;12.308;2024-03-06T02:28:23;2.40;;;1.50;;
69170;SDS011;56279;47.902;12.308;2024-03-06T02:30:25;2.33;;;1.48;;
69170;SDS011;56279;47.902;12.308;2024-03-06T02:32:27;5.30;;;1.50;;
69170;SDS011;56279;47.902;12.308;2024-03-06T02:34:28;2.70;;;1.58;;
69170;SDS011;56279;47.902;12.308;2024-03-06T02:36:30;2.70;;;1.35;;
69170;SDS011;56279;47.902;12.308;2024-03-06T02:38:34;2.45;;;1.70;;
69170;SDS011;56279;47.902;12.308;2024-03-06T02:40:37;4.30;;;1.90;;
69170;SDS011;56279;47.902;12.308;2024-03-06T02:42:38;3.35;;;1.65;;
69170;SDS011;56279;47.902;12.308;2024-03-06T02:44:41;2.20;;;1.50;;
69170;SDS011;56279;47.902;12.308;2024-03-06T02:46:46;3.13;;;1.73;;
69170;SDS011;56279;47.902;12.308;2024-03-06T02:48:49;3.05;;;1.60;;
69170;SDS011;56279;47.902;12.308;2024-03-06T02:50:56;3.17;;;1.75;;
69170;SDS011;56279;47.902;12.308;2024-03-06T02:52:58;2.53;;;1.40;;
69170;SDS011;56279;47.902;12.308;2024-03-06T02:54:59;2.10;;;1.40;;
69170;SDS011;56279;47.902;12.308;2024-03-06T02:57:00;2.85;;;1.40;;
69170;SDS011;56279;47.902;12.308;2024-03-06T02:59:02;2.72;;;1.60;;
69170;SDS011;56279;47.902;12.308;2024-03-06T03:01:04;2.15;;;1.48;;
69170;SDS011;56279;47.902;12.308;2024-03-06T03:03:05;2.70;;;1.35;;
69170;SDS011;56279;47.902;12.308;2024-03-06T03:05:08;2.80;;;1.52;;
69170;SDS011;56279;47.902;12.308;2024-03-06T03:07:10;2.97;;;1.58;;
69170;SDS011;56279;47.902;12.308;2024-03-06T03:09:11;3.03;;;1.50;;
69170;SDS011;56279;47.902;12.308;2024-03-06T03:11:12;2.63;;;1.45;;
69170;SDS011;56279;47.902;12.308;2024-03-06T03:13:14;3.08;;;1.60;;
69170;SDS011;56279;47.902;12.308;2024-03-06T03:15:16;3.40;;;1.67;;
69170;SDS011;56279;47.902;12.308;2024-03-06T03:17:18;2.80;;;1.50;;
69170;SDS011;56279;47.902;12.308;2024-03-06T03:19:21;2.15;;;1.33;;
69170;SDS011;56279;47.902;12.308;2024-03-06T03:21:22;3.40;;;1.80;;
69170;SDS011;56279;47.902;12.308;2024-03-06T03:23:24;2.47;;;1.52;;
69170;SDS011;56279;47.902;12.308;2024-03-06T03:25:25;2.33;;;1.33;;
69170;SDS011;56279;47.902;12.308;2024-03-06T03:27:27;2.78;;;1.67;;
69170;SDS011;56279;47.902;12.308;2024-03-06T03:29:29;2.00;;;1.10;;
69170;SDS011;56279;47.902;12.308;2024-03-06T03:31:31;2.85;;;1.30;;
69170;SDS011;56279;47.902;12.308;2024-03-06T03:33:35;2.00;;;1.15;;
69170;SDS011;56279;47.902;12.308;2024-03-06T03:35:39;2.08;;;1.23;;
69170;SDS011;56279;47.902;12.308;2024-03-06T03:37:42;1.90;;;1.50;;
69170;SDS011;56279;47.902;12.308;2024-03-06T03:39:45;2.50;;;1.40;;
69170;SDS011;56279;47.902;12.308;2024-03-06T03:41:47;2.38;;;1.40;;
69170;SDS011;56279;47.902;12.308;2024-03-06T03:43:51;2.20;;;1.30;;
69170;SDS011;56279;47.902;12.308;2024-03-06T03:45:53;2.00;;;1.35;;
69170;SDS011;56279;47.902;12.308;2024-03-06T03:47:54;1.67;;;1.27;;
69170;SDS011;56279;47.902;12.308;2024-03-06T03:49:55;2.58;;;1.30;;
69170;SDS011;56279;47.902;12.308;2024-03-06T03:51:57;1.85;;;1.33;;
69170;SDS011;56279;47.902;12.308;2024-03-06T03:54:00;2.20;;;1.45;;
69170;SDS011;56279;47.902;12.308;2024-03-06T03:56:01;2.72;;;1.30;;
69170;SDS011;56279;47.902;12.308;2024-03-06T03:58:04;2.78;;;1.70;;
69170;SDS011;56279;47.902;12.308;2024-03-06T04:00:07;1.98;;;1.15;;
69170;SDS011;56279;47.902;12.308;2024-03-06T04:02:13;1.85;;;1.20;;
69170;SDS011;56279;47.902;12.308;2024-03-06T04:04:14;1.75;;;1.10;;
69170;SDS011;56279;47.902;12.308;2024-03-06T04:06:15;1.33;;;1.00;;
69170;SDS011;56279;47.902;12.308;2024-03-06T04:08:16;1.30;;;1.10;;
69170;SDS011;56279;47.902;12.308;2024-03-06T04:10:18;1.63;;;1.08;;
69170;SDS011;56279;47.902;12.308;2024-03-06T04:12:19;1.48;;;1.02;;
69170;SDS011;56279;47.902;12.308;2024-03-06T04:14:21;1.65;;;0.98;;
69170;SDS011;56279;47.902;12.308;2024-03-06T04:16:23;1.40;;;1.00;;
69170;SDS011;56279;47.902;12.308;2024-03-06T04:18:24;1.83;;;1.20;;
69170;SDS011;56279;47.902;12.308;2024-03-06T04:20:25;1.35;;;1.02;;
69170;SDS011;56279;47.902;12.308;2024-03-06T04:22:27;1.88;;;1.20;;
69170;SDS011;56279;47.902;12.308;2024-03-06T04:24:29;1.20;;;1.00;;
69170;SDS011;56279;47.902;12.308;2024-03-06T04:26:32;1.67;;;1.10;;
69170;SDS011;56279;47.902;12.308;2024-03-06T04:28:33;1.10;;;1.00;;
69170;SDS011;56279;47.902;12.308;2024-03-06T04:30:34;1.23;;;0.90;;
69170;SDS011;56279;47.902;12.308;2024-03-06T04:32:36;1.20;;;1.00;;
69170;SDS011;56279;47.902;12.308;2024-03-06T04:34:43;1.10;;;1.00;;
69170;SDS011;56279;47.902;12.308;2024-03-06T04:36:45;1.48;;;0.98;;
69170;SDS011;56279;47.902;12.308;2024-03-06T04:38:46;1.50;;;1.00;;
69170;SDS011;56279;47.902;12.308;2024-03-06T04:40:52;1.75;;;0.90;;
69170;SDS011;56279;47.902;12.308;2024-03-06T04:42:53;1.17;;;1.00;;
69170;SDS011;56279;47.902;12.308;2024-03-06T04:44:54;1.05;;;0.90;;
69170;SDS011;56279;47.902;12.308;2024-03-06T04:46:57;1.00;;;0.90;;
69170;SDS011;56279;47.902;12.308;2024-03-06T04:48:58;0.70;;;0.70;;
69170;SDS011;56279;47.902;12.308;2024-03-06T04:51:00;1.20;;;1.00;;
69170;SDS011;56279;47.902;12.308;2024-03-06T04:53:02;1.70;;;1.00;;
69170;SDS011;56279;47.902;12.308;2024-03-06T04:55:05;0.80;;;0.80;;
69170;SDS011;56279;47.902;12.308;2024-03-06T04:57:09;1.10;;;1.00;;
69170;SDS011;56279;47.902;12.308;2024-03-06T04:59:10;0.80;;;0.80;;
69170;SDS011;56279;47.902;12.308;2024-03-06T05:01:11;1.00;;;0.90;;
69170;SDS011;56279;47.902;12.308;2024-03-06T05:03:13;1.83;;;1.00;;
69170;SDS011;56279;47.902;12.308;2024-03-06T05:05:16;0.82;;;0.80;;
69170;SDS011;56279;47.902;12.308;2024-03-06T05:07:19;1.05;;;0.90;;
69170;SDS011;56279;47.902;12.308;2024-03-06T05:09:24;1.35;;;0.90;;
69170;SDS011;56279;47.902;12.308;2024-03-06T05:11:25;1.08;;;0.98;;
69170;SDS011;56279;47.902;12.308;2024-03-06T05:13:26;1.00;;;0.90;;
69170;SDS011;56279;47.902;12.308;2024-03-06T05:15:28;1.35;;;1.00;;
69170;SDS011;56279;47.902;12.308;2024-03-06T05:17:30;1.10;;;1.00;;
69170;SDS011;56279;47.902;12.308;2024-03-06T05:19:32;1.20;;;1.10;;
69170;SDS011;56279;47.902;12.308;2024-03-06T05:21:33;1.30;;;1.00;;
69170;SDS011;56279;47.902;12.308;2024-03-06T05:23:37;1.13;;;1.00;;
69170;SDS011;56279;47.902;12.308;2024-03-06T05:25:39;1.10;;;1.00;;
69170;SDS011;56279;47.902;12.308;2024-03-06T05:27:41;1.13;;;0.90;;
69170;SDS011;56279;47.902;12.308;2024-03-06T05:29:43;1.23;;;1.10;;
69170;SDS011;56279;47.902;12.308;2024-03-06T05:31:44;1.10;;;0.80;;
69170;SDS011;56279;47.902;12.308;2024-03-06T05:33:48;1.10;;;1.00;;
69170;SDS011;56279;47.902;12.308;2024-03-06T05:35:50;1.50;;;1.05;;
69170;SDS011;56279;47.902;12.308;2024-03-06T05:37:51;1.58;;;1.00;;
69170;SDS011;56279;47.902;12.308;2024-03-06T05:39:54;1.65;;;1.00;;
69170;SDS011;56279;47.902;12.308;2024-03-06T05:41:55;1.40;;;0.90;;
69170;SDS011;56279;47.902;12.308;2024-03-06T05:44:00;0.93;;;0.85;;
69170;SDS011;56279;47.902;12.308;2024-03-06T05:46:06;1.00;;;0.90;;
69170;SDS011;56279;47.902;12.308;2024-03-06T05:48:13;1.35;;;0.90;;
69170;SDS011;56279;47.902;12.308;2024-03-06T05:50:17;1.70;;;1.10;;
69170;SDS011;56279;47.902;12.308;2024-03-06T05:52:19;1.45;;;1.05;;
69170;SDS011;56279;47.902;12.308;2024-03-06T05:54:24;1.30;;;1.10;;
69170;SDS011;56279;47.902;12.308;2024-03-06T05:56:26;1.55;;;1.10;;
69170;SDS011;56279;47.902;12.308;2024-03-06T05:58:27;1.67;;;1.13;;
69170;SDS011;56279;47.902;12.308;2024-03-06T06:00:29;0.73;;;0.70;;
69170;SDS011;56279;47.902;12.308;2024-03-06T06:02:30;0.90;;;0.90;;
69170;SDS011;56279;47.902;12.308;2024-03-06T06:04:31;1.33;;;1.00;;
69170;SDS011;56279;47.902;12.308;2024-03-06T06:06:33;1.15;;;0.98;;
69170;SDS011;56279;47.902;12.308;2024-03-06T06:08:36;0.90;;;0.90;;
69170;SDS011;56279;47.902;12.308;2024-03-06T06:10:38;1.70;;;1.13;;
69170;SDS011;56279;47.902;12.308;2024-03-06T06:12:39;1.30;;;0.90;;
69170;SDS011;56279;47.902;12.308;2024-03-06T06:14:42;1.67;;;0.98;;
69170;SDS011;56279;47.902;12.308;2024-03-06T06:16:43;1.15;;;0.95;;
69170;SDS011;56279;47.902;12.308;2024-03-06T06:18:44;1.00;;;0.90;;
69170;SDS011;56279;47.902;12.308;2024-03-06T06:20:46;1.98;;;1.00;;
69170;SDS011;56279;47.902;12.308;2024-03-06T06:22:48;2.85;;;0.98;;
69170;SDS011;56279;47.902;12.308;2024-03-06T06:24:50;1.10;;;0.90;;
69170;SDS011;56279;47.902;12.308;2024-03-06T06:26:53;2.33;;;0.98;;
69170;SDS011;56279;47.902;12.308;2024-03-06T06:28:55;1.00;;;0.90;;
69170;SDS011;56279;47.902;12.308;2024-03-06T06:30:59;1.77;;;0.98;;
69170;SDS011;56279;47.902;12.308;2024-03-06T06:33:00;1.20;;;1.10;;
69170;SDS011;56279;47.902;12.308;2024-03-06T06:35:01;1.70;;;1.20;;
69170;SDS011;56279;47.902;12.308;2024-03-06T06:37:02;1.67;;;1.10;;
69170;SDS011;56279;47.902;12.308;2024-03-06T06:39:04;1.38;;;1.00;;
69170;SDS011;56279;47.902;12.308;2024-03-06T06:41:06;1.60;;;0.95;;
69170;SDS011;56279;47.902;12.308;2024-03-06T06:43:10;1.10;;;1.00;;
69170;SDS011;56279;47.902;12.308;2024-03-06T06:45:14;2.30;;;1.30;;
69170;SDS011;56279;47.902;12.308;2024-03-06T06:47:16;1.60;;;1.20;;
69170;SDS011;56279;47.902;12.308;2024-03-06T06:49:19;1.42;;;1.20;;
69170;SDS011;56279;47.902;12.308;2024-03-06T06:51:30;1.27;;;1.17;;
69170;SDS011;56279;47.902;12.308;2024-03-06T06:53:31;1.45;;;1.10;;
69170;SDS011;56279;47.902;12.308;2024-03-06T06:55:33;2.05;;;1.10;;
69170;SDS011;56279;47.902;12.308;2024-03-06T06:57:34;2.20;;;1.17;;
69170;SDS011;56279;47.902;12.308;2024-03-06T06:59:36;1.20;;;1.10;;
69170;SDS011;56279;47.902;12.308;2024-03-06T07:01:39;1.02;;;0.90;;
69170;SDS011;56279;47.902;12.308;2024-03-06T07:03:42;0.90;;;0.90;;
69170;SDS011;56279;47.902;12.308;2024-03-06T07:05:44;2.13;;;0.95;;
69170;SDS011;56279;47.902;12.308;2024-03-06T07:07:45;0.80;;;0.80;;
69170;SDS011;56279;47.902;12.308;2024-03-06T07:09:47;1.35;;;1.00;;
69170;SDS011;56279;47.902;12.308;2024-03-06T07:11:50;1.25;;;0.90;;
69170;SDS011;56279;47.902;12.308;2024-03-06T07:13:52;1.27;;;0.90;;
69170;SDS011;56279;47.902;12.308;2024-03-06T07:15:53;1.90;;;1.00;;
69170;SDS011;56279;47.902;12.308;2024-03-06T07:17:56;1.05;;;0.95;;
69170;SDS011;56279;47.902;12.308;2024-03-06T07:19:57;1.20;;;1.10;;
69170;SDS011;56279;47.902;12.308;2024-03-06T07:21:58;1.25;;;0.95;;
69170;SDS011;56279;47.902;12.308;2024-03-06T07:24:01;1.15;;;0.90;;
69170;SDS011;56279;47.902;12.308;2024-03-06T07:26:02;1.10;;;1.00;;
69170;SDS011;56279;47.902;12.308;2024-03-06T07:28:04;1.35;;;1.08;;
69170;SDS011;56279;47.902;12.308;2024-03-06T07:30:06;1.17;;;1.05;;
69170;SDS011;56279;47.902;12.308;2024-03-06T07:32:08;1.38;;;0.95;;
69170;SDS011;56279;47.902;12.308;2024-03-06T07:34:11;1.00;;;0.90;;
69170;SDS011;56279;47.902;12.308;2024-03-06T07:36:13;1.85;;;0.93;;
69170;SDS011;56279;47.902;12.308;2024-03-06T07:38:14;1.40;;;1.05;;
69170;SDS011;56279;47.902;12.308;2024-03-06T07:40:16;1.50;;;1.10;;
69170;SDS011;56279;47.902;12.308;2024-03-06T07:42:18;1.33;;;1.10;;
69170;SDS011;56279;47.902;12.308;2024-03-06T07:44:22;1.50;;;1.10;;
69170;SDS011;56279;47.902;12.308;2024-03-06T07:46:23;1.30;;;1.00;;
69170;SDS011;56279;47.902;12.308;2024-03-06T07:48:24;1.20;;;0.90;;
69170;SDS011;56279;47.902;12.308;2024-03-06T07:50:27;1.48;;;1.10;;
69170;SDS011;56279;47.902;12.308;2024-03-06T07:52:28;1.20;;;1.10;;
69170;SDS011;56279;47.902;12.308;2024-03-06T07:54:31;2.30;;;1.02;;
69170;SDS011;56279;47.902;12.308;2024-03-06T07:56:33;1.20;;;1.10;;
69170;SDS011;56279;47.902;12.308;2024-03-06T07:58:35;1.85;;;1.05;;
69170;SDS011;56279;47.902;12.308;2024-03-06T08:00:36;1.45;;;0.90;;
69170;SDS011;56279;47.902;12.308;2024-03-06T08:02:39;1.13;;;1.00;;
69170;SDS011;56279;47.902;12.308;2024-03-06T08:04:43;1.05;;;0.93;;
69170;SDS011;56279;47.902;12.308;2024-03-06T08:06:44;1.48;;;0.95;;
69170;SDS011;56279;47.902;12.308;2024-03-06T08:08:47;1.77;;;1.10;;
69170;SDS011;56279;47.902;12.308;2024-03-06T08:10:49;1.67;;;1.10;;
69170;SDS011;56279;47.902;12.308;2024-03-06T08:12:51;1.13;;;1.02;;
69170;SDS011;56279;47.902;12.308;2024-03-06T08:14:56;1.20;;;1.00;;
69170;SDS011;56279;47.902;12.308;2024-03-06T08:16:59;1.40;;;1.00;;
69170;SDS011;56279;47.902;12.308;2024-03-06T08:19:01;1.65;;;1.10;;
69170;SDS011;56279;47.902;12.308;2024-03-06T08:21:02;1.75;;;1.20;;
69170;SDS011;56279;47.902;12.308;2024-03-06T08:23:06;2.30;;;1.25;;
69170;SDS011;56279;47.902;12.308;2024-03-06T08:25:09;1.38;;;1.10;;
69170;SDS011;56279;47.902;12.308;2024-03-06T08:27:11;1.70;;;1.17;;
69170;SDS011;56279;47.902;12.308;2024-03-06T08:29:12;1.42;;;1.00;;
69170;SDS011;56279;47.902;12.308;2024-03-06T08:31:14;2.80;;;1.40;;
69170;SDS011;56279;47.902;12.308;2024-03-06T08:33:16;2.42;;;1.13;;
69170;SDS011;56279;47.902;12.308;2024-03-06T08:35:18;1.35;;;1.10;;
69170;SDS011;56279;47.902;12.308;2024-03-06T08:37:22;2.05;;;1.25;;
69170;SDS011;56279;47.902;12.308;2024-03-06T08:39:23;1.77;;;1.10;;
69170;SDS011;56279;47.902;12.308;2024-03-06T08:41:25;1.92;;;1.20;;
69170;SDS011;56279;47.902;12.308;2024-03-06T08:43:28;1.83;;;1.23;;
69170;SDS011;56279;47.902;12.308;2024-03-06T08:45:31;1.73;;;1.00;;
69170;SDS011;56279;47.902;12.308;2024-03-06T08:47:32;1.63;;;1.20;;
69170;SDS011;56279;47.902;12.308;2024-03-06T08:49:33;2.45;;;1.20;;
69170;SDS011;56279;47.902;12.308;2024-03-06T08:51:35;1.30;;;1.10;;
69170;SDS011;56279;47.902;12.308;2024-03-06T08:53:37;1.52;;;1.20;;
69170;SDS011;56279;47.902;12.308;2024-03-06T08:55:39;2.20;;;1.30;;
69170;SDS011;56279;47.902;12.308;2024-03-06T08:57:40;1.42;;;1.20;;
69170;SDS011;56279;47.902;12.308;2024-03-06T08:59:41;1.48;;;1.10;;
69170;SDS011;56279;47.902;12.308;2024-03-06T09:01:44;1.67;;;1.13;;
69170;SDS011;56279;47.902;12.308;2024-03-06T09:03:46;1.20;;;1.10;;
69170;SDS011;56279;47.902;12.308;2024-03-06T09:05:47;1.23;;;1.10;;
69170;SDS011;56279;47.902;12.308;2024-03-06T09:07:49;1.50;;;1.20;;
69170;SDS011;56279;47.902;12.308;2024-03-06T09:09:55;1.67;;;1.20;;
69170;SDS011;56279;47.902;12.308;2024-03-06T09:11:57;2.17;;;1.20;;
69170;SDS011;56279;47.902;12.308;2024-03-06T09:13:59;2.05;;;1.40;;
69170;SDS011;56279;47.902;12.308;2024-03-06T09:16:00;1.75;;;1.15;;
69170;SDS011;56279;47.902;12.308;2024-03-06T09:18:02;2.38;;;1.27;;
69170;SDS011;56279;47.902;12.308;2024-03-06T09:20:05;1.60;;;1.15;;
69170;SDS011;56279;47.902;12.308;2024-03-06T09:22:12;1.95;;;1.25;;
69170;SDS011;56279;47.902;12.308;2024-03-06T09:24:14;1.50;;;1.15;;
69170;SDS011;56279;47.902;12.308;2024-03-06T09:26:16;2.60;;;1.30;;
69170;SDS011;56279;47.902;12.308;2024-03-06T09:28:18;1.63;;;1.35;;
69170;SDS011;56279;47.902;12.308;2024-03-06T09:30:19;1.98;;;1.23;;
69170;SDS011;56279;47.902;12.308;2024-03-06T09:32:21;2.20;;;1.50;;
69170;SDS011;56279;47.902;12.308;2024-03-06T09:34:26;1.42;;;1.10;;
69170;SDS011;56279;47.902;12.308;2024-03-06T09:36:29;2.08;;;1.20;;
69170;SDS011;56279;47.902;12.308;2024-03-06T09:38:30;1.98;;;1.20;;
69170;SDS011;56279;47.902;12.308;2024-03-06T09:40:32;2.50;;;1.20;;
69170;SDS011;56279;47.902;12.308;2024-03-06T09:42:34;1.77;;;1.23;;
69170;SDS011;56279;47.902;12.308;2024-03-06T09:44:36;1.50;;;1.20;;
69170;SDS011;56279;47.902;12.308;2024-03-06T09:46:37;1.63;;;1.20;;
69170;SDS011;56279;47.902;12.308;2024-03-06T09:48:42;2.17;;;1.33;;
69170;SDS011;56279;47.902;12.308;2024-03-06T09:50:48;1.20;;;1.10;;
69170;SDS011;56279;47.902;12.308;2024-03-06T09:52:53;1.70;;;1.20;;
69170;SDS011;56279;47.902;12.308;2024-03-06T09:54:56;1.65;;;1.17;;
69170;SDS011;56279;47.902;12.308;2024-03-06T09:56:58;1.33;;;1.13;;
69170;SDS011;56279;47.902;12.308;2024-03-06T09:59:01;2.10;;;1.27;;
69170;SDS011;56279;47.902;12.308;2024-03-06T10:01:04;2.28;;;1.40;;
69170;SDS011;56279;47.902;12.308;2024-03-06T10:03:09;3.38;;;1.42;;
69170;SDS011;56279;47.902;12.308;2024-03-06T10:05:21;1.60;;;1.20;;
69170;SDS011;56279;47.902;12.308;2024-03-06T10:07:24;2.03;;;1.23;;
69170;SDS011;56279;47.902;12.308;2024-03-06T10:09:28;2.80;;;1.30;;
69170;SDS011;56279;47.902;12.308;2024-03-06T10:11:30;1.58;;;1.13;;
69170;SDS011;56279;47.902;12.308;2024-03-06T10:13:33;1.80;;;1.20;;
69170;SDS011;56279;47.902;12.308;2024-03-06T10:15:34;1.83;;;1.20;;
69170;SDS011;56279;47.902;12.308;2024-03-06T10:17:37;1.48;;;1.13;;
69170;SDS011;56279;47.902;12.308;2024-03-06T10:19:39;2.03;;;1.30;;
69170;SDS011;56279;47.902;12.308;2024-03-06T10:21:40;1.48;;;1.20;;
69170;SDS011;56279;47.902;12.308;2024-03-06T10:23:42;2.72;;;1.38;;
69170;SDS011;56279;47.902;12.308;2024-03-06T10:25:43;2.17;;;1.20;;
69170;SDS011;56279;47.902;12.308;2024-03-06T10:27:45;2.35;;;1.60;;
69170;SDS011;56279;47.902;12.308;2024-03-06T10:30:00;1.95;;;1.30;;
69170;SDS011;56279;47.902;12.308;2024-03-06T10:32:02;1.33;;;1.05;;
69170;SDS011;56279;47.902;12.308;2024-03-06T10:34:04;1.70;;;1.15;;
69170;SDS011;56279;47.902;12.308;2024-03-06T10:36:09;2.10;;;1.50;;
69170;SDS011;56279;47.902;12.308;2024-03-06T10:38:14;1.23;;;1.08;;
69170;SDS011;56279;47.902;12.308;2024-03-06T10:40:16;1.67;;;1.30;;
69170;SDS011;56279;47.902;12.308;2024-03-06T10:42:20;1.77;;;1.20;;
69170;SDS011;56279;47.902;12.308;2024-03-06T10:44:24;2.28;;;1.30;;
69170;SDS011;56279;47.902;12.308;2024-03-06T10:46:27;2.10;;;1.30;;
69170;SDS011;56279;47.902;12.308;2024-03-06T10:48:30;2.33;;;1.40;;
69170;SDS011;56279;47.902;12.308;2024-03-06T10:50:34;21.88;;;8.90;;
69170;SDS011;56279;47.902;12.308;2024-03-06T10:52:38;5.80;;;3.00;;
69170;SDS011;56279;47.902;12.308;2024-03-06T10:54:40;9.40;;;4.05;;
69170;SDS011;56279;47.902;12.308;2024-03-06T10:56:43;8.23;;;3.78;;
69170;SDS011;56279;47.902;12.308;2024-03-06T10:58:44;6.60;;;3.25;;
69170;SDS011;56279;47.902;12.308;2024-03-06T11:00:49;3.92;;;2.08;;
69170;SDS011;56279;47.902;12.308;2024-03-06T11:02:53;5.13;;;1.80;;
69170;SDS011;56279;47.902;12.308;2024-03-06T11:04:56;7.82;;;3.03;;
69170;SDS011;56279;47.902;12.308;2024-03-06T11:06:59;7.32;;;2.40;;
69170;SDS011;56279;47.902;12.308;2024-03-06T11:09:04;13.45;;;5.53;;
69170;SDS011;56279;47.902;12.308;2024-03-06T11:11:19;17.30;;;6.60;;
69170;SDS011;56279;47.902;12.308;2024-03-06T11:13:24;31.58;;;11.68;;
69170;SDS011;56279;47.902;12.308;2024-03-06T11:15:29;11.82;;;5.18;;
69170;SDS011;56279;47.902;12.308;2024-03-06T11:17:31;8.10;;;3.83;;
69170;SDS011;56279;47.902;12.308;2024-03-06T11:19:32;7.57;;;3.45;;
69170;SDS011;56279;47.902;12.308;2024-03-06T11:22:08;13.25;;;6.15;;
69170;SDS011;56279;47.902;12.308;2024-03-06T11:24:13;11.07;;;5.43;;
69170;SDS011;56279;47.902;12.308;2024-03-06T11:26:16;7.28;;;3.80;;
69170;SDS011;56279;47.902;12.308;2024-03-06T11:28:21;13.45;;;8.50;;
69170;SDS011;56279;47.902;12.308;2024-03-06T11:30:24;3.97;;;2.42;;
69170;SDS011;56279;47.902;12.308;2024-03-06T11:32:26;4.82;;;3.42;;
69170;SDS011;56279;47.902;12.308;2024-03-06T11:34:30;7.07;;;3.38;;
69170;SDS011;56279;47.902;12.308;2024-03-06T11:36:31;3.88;;;2.20;;
69170;SDS011;56279;47.902;12.308;2024-03-06T11:38:37;6.72;;;4.07;;
69170;SDS011;56279;47.902;12.308;2024-03-06T11:40:44;5.70;;;2.53;;
69170;SDS011;56279;47.902;12.308;2024-03-06T11:42:49;7.43;;;3.00;;
69170;SDS011;56279;47.902;12.308;2024-03-06T11:44:54;7.97;;;3.17;;
69170;SDS011;56279;47.902;12.308;2024-03-06T11:47:00;4.18;;;2.30;;
69170;SDS011;56279;47.902;12.308;2024-03-06T11:49:20;3.80;;;2.08;;
69170;SDS011;56279;47.902;12.308;2024-03-06T11:51:26;4.90;;;2.67;;
69170;SDS011;56279;47.902;12.308;2024-03-06T11:53:32;3.53;;;2.05;;
69170;SDS011;56279;47.902;12.308;2024-03-06T11:55:37;3.17;;;1.90;;
69170;SDS011;56279;47.902;12.308;2024-03-06T11:57:38;5.65;;;2.15;;
69170;SDS011;56279;47.902;12.308;2024-03-06T11:59:41;5.85;;;2.72;;
69170;SDS011;56279;47.902;12.308;2024-03-06T12:01:42;2.85;;;1.60;;
69170;SDS011;56279;47.902;12.308;2024-03-06T12:03:43;4.88;;;1.90;;
69170;SDS011;56279;47.902;12.308;2024-03-06T12:05:45;3.15;;;1.90;;
69170;SDS011;56279;47.902;12.308;2024-03-06T12:07:49;3.55;;;1.95;;